sensor_id;sensor_type;location;lat;lon;timestamp;P1;durP1;ratioP1;P2;durP2;ratioP2
67930;SDS011;54726;52.000;5.954;2022-08-02T00:00:53;3.78;;;1.13;;
67930;SDS011;54726;52.000;5.954;2022-08-02T00:01:54;2.83;;;1.23;;
67930;SDS011;54726;52.000;5.954;2022-08-02T00:02:54;3.60;;;1.48;;
67930;SDS011;54726;52.000;5.954;2022-08-02T00:03:54;4.97;;;1.27;;
67930;SDS011;54726;52.000;5.954;2022-08-02T00:04:55;6.85;;;1.73;;
67930;SDS011;54726;52.000;5.954;2022-08-02T00:05:55;12.40;;;1.98;;
67930;SDS011;54726;52.000;5.954;2022-08-02T00:06:56;9.00;;;1.75;;
67930;SDS011;54726;52.000;5.954;2022-08-02T00:07:56;2.67;;;1.10;;
67930;SDS011;54726;52.000;5.954;2022-08-02T00:08:57;7.43;;;1.50;;
67930;SDS011;54726;52.000;5.954;2022-08-02T00:09:57;4.20;;;2.25;;
67930;SDS011;54726;52.000;5.954;2022-08-02T00:10:58;5.68;;;1.40;;
67930;SDS011;54726;52.000;5.954;2022-08-02T00:11:58;7.18;;;1.20;;
67930;SDS011;54726;52.000;5.954;2022-08-02T00:12:58;7.72;;;1.52;;
67930;SDS011;54726;52.000;5.954;2022-08-02T00:13:59;8.23;;;1.75;;
67930;SDS011;54726;52.000;5.954;2022-08-02T00:15:01;7.43;;;1.52;;
67930;SDS011;54726;52.000;5.954;2022-08-02T00:16:01;2.80;;;1.20;;
67930;SDS011;54726;52.000;5.954;2022-08-02T00:17:02;3.78;;;1.40;;
67930;SDS011;54726;52.000;5.954;2022-08-02T00:18:03;4.13;;;1.40;;
67930;SDS011;54726;52.000;5.954;2022-08-02T00:19:03;4.65;;;1.33;;
67930;SDS011;54726;52.000;5.954;2022-08-02T00:20:04;5.18;;;1.70;;
67930;SDS011;54726;52.000;5.954;2022-08-02T00:21:05;5.82;;;1.83;;
67930;SDS011;54726;52.000;5.954;2022-08-02T00:22:06;7.57;;;1.75;;
67930;SDS011;54726;52.000;5.954;2022-08-02T00:23:06;3.08;;;1.20;;
67930;SDS011;54726;52.000;5.954;2022-08-02T00:24:07;5.38;;;1.27;;
67930;SDS011;54726;52.000;5.954;2022-08-02T00:25:08;4.47;;;1.33;;
67930;SDS011;54726;52.000;5.954;2022-08-02T00:26:08;5.18;;;1.40;;
67930;SDS011;54726;52.000;5.954;2022-08-02T00:27:09;3.67;;;1.30;;
67930;SDS011;54726;52.000;5.954;2022-08-02T00:28:09;4.63;;;1.40;;
67930;SDS011;54726;52.000;5.954;2022-08-02T00:29:10;3.25;;;1.38;;
67930;SDS011;54726;52.000;5.954;2022-08-02T00:30:12;7.78;;;2.05;;
67930;SDS011;54726;52.000;5.954;2022-08-02T00:31:12;3.85;;;1.58;;
67930;SDS011;54726;52.000;5.954;2022-08-02T00:32:13;2.80;;;1.30;;
67930;SDS011;54726;52.000;5.954;2022-08-02T00:33:13;8.40;;;1.33;;
67930;SDS011;54726;52.000;5.954;2022-08-02T00:34:14;4.85;;;1.48;;
67930;SDS011;54726;52.000;5.954;2022-08-02T00:35:14;3.80;;;1.45;;
67930;SDS011;54726;52.000;5.954;2022-08-02T00:36:15;4.40;;;1.35;;
67930;SDS011;54726;52.000;5.954;2022-08-02T00:37:15;6.85;;;1.25;;
67930;SDS011;54726;52.000;5.954;2022-08-02T00:38:16;5.93;;;1.70;;
67930;SDS011;54726;52.000;5.954;2022-08-02T00:39:16;8.68;;;1.52;;
67930;SDS011;54726;52.000;5.954;2022-08-02T00:40:19;4.80;;;1.40;;
67930;SDS011;54726;52.000;5.954;2022-08-02T00:41:21;6.13;;;1.75;;
67930;SDS011;54726;52.000;5.954;2022-08-02T00:42:22;3.30;;;1.30;;
67930;SDS011;54726;52.000;5.954;2022-08-02T00:43:22;4.38;;;1.30;;
67930;SDS011;54726;52.000;5.954;2022-08-02T00:44:23;5.10;;;1.45;;
67930;SDS011;54726;52.000;5.954;2022-08-02T00:45:25;6.07;;;1.70;;
67930;SDS011;54726;52.000;5.954;2022-08-02T00:46:25;4.43;;;2.03;;
67930;SDS011;54726;52.000;5.954;2022-08-02T00:47:26;4.03;;;1.60;;
67930;SDS011;54726;52.000;5.954;2022-08-02T00:48:26;7.13;;;1.73;;
67930;SDS011;54726;52.000;5.954;2022-08-02T00:49:26;4.50;;;1.75;;
67930;SDS011;54726;52.000;5.954;2022-08-02T00:50:27;3.95;;;1.45;;
67930;SDS011;54726;52.000;5.954;2022-08-02T00:51:28;9.48;;;2.15;;
67930;SDS011;54726;52.000;5.954;2022-08-02T00:52:28;3.38;;;1.58;;
67930;SDS011;54726;52.000;5.954;2022-08-02T00:53:29;4.63;;;1.33;;
67930;SDS011;54726;52.000;5.954;2022-08-02T00:54:29;6.30;;;1.30;;
67930;SDS011;54726;52.000;5.954;2022-08-02T00:55:30;3.80;;;1.20;;
67930;SDS011;54726;52.000;5.954;2022-08-02T00:56:31;5.13;;;1.42;;
67930;SDS011;54726;52.000;5.954;2022-08-02T00:57:32;6.70;;;1.70;;
67930;SDS011;54726;52.000;5.954;2022-08-02T00:58:32;2.85;;;1.30;;
67930;SDS011;54726;52.000;5.954;2022-08-02T00:59:32;3.60;;;1.60;;
67930;SDS011;54726;52.000;5.954;2022-08-02T01:00:34;3.38;;;1.45;;
67930;SDS011;54726;52.000;5.954;2022-08-02T01:01:35;6.88;;;1.63;;
67930;SDS011;54726;52.000;5.954;2022-08-02T01:02:35;5.50;;;1.45;;
67930;SDS011;54726;52.000;5.954;2022-08-02T01:03:36;3.55;;;1.40;;
67930;SDS011;54726;52.000;5.954;2022-08-02T01:04:36;4.05;;;1.35;;
67930;SDS011;54726;52.000;5.954;2022-08-02T01:05:36;7.03;;;1.73;;
67930;SDS011;54726;52.000;5.954;2022-08-02T01:06:37;8.85;;;1.50;;
67930;SDS011;54726;52.000;5.954;2022-08-02T01:07:39;5.85;;;1.52;;
67930;SDS011;54726;52.000;5.954;2022-08-02T01:08:40;7.32;;;1.55;;
67930;SDS011;54726;52.000;5.954;2022-08-02T01:09:41;3.47;;;1.25;;
67930;SDS011;54726;52.000;5.954;2022-08-02T01:10:41;4.32;;;1.30;;
67930;SDS011;54726;52.000;5.954;2022-08-02T01:11:42;3.97;;;1.80;;
67930;SDS011;54726;52.000;5.954;2022-08-02T01:12:42;3.85;;;1.30;;
67930;SDS011;54726;52.000;5.954;2022-08-02T01:13:43;5.95;;;1.20;;
67930;SDS011;54726;52.000;5.954;2022-08-02T01:14:45;4.10;;;1.30;;
67930;SDS011;54726;52.000;5.954;2022-08-02T01:15:49;5.18;;;1.92;;
67930;SDS011;54726;52.000;5.954;2022-08-02T01:16:57;6.05;;;1.45;;
67930;SDS011;54726;52.000;5.954;2022-08-02T01:18:02;5.93;;;1.80;;
67930;SDS011;54726;52.000;5.954;2022-08-02T01:19:09;3.75;;;1.60;;
67930;SDS011;54726;52.000;5.954;2022-08-02T01:20:27;4.25;;;1.38;;
67930;SDS011;54726;52.000;5.954;2022-08-02T01:21:46;3.00;;;1.27;;
67930;SDS011;54726;52.000;5.954;2022-08-02T01:23:01;2.90;;;1.70;;
67930;SDS011;54726;52.000;5.954;2022-08-02T01:24:19;3.60;;;1.40;;
67930;SDS011;54726;52.000;5.954;2022-08-02T01:25:36;5.03;;;2.08;;
67930;SDS011;54726;52.000;5.954;2022-08-02T01:26:54;4.50;;;1.40;;
67930;SDS011;54726;52.000;5.954;2022-08-02T01:28:08;4.80;;;1.35;;
67930;SDS011;54726;52.000;5.954;2022-08-02T01:29:25;9.65;;;2.22;;
67930;SDS011;54726;52.000;5.954;2022-08-02T01:30:29;6.05;;;1.23;;
67930;SDS011;54726;52.000;5.954;2022-08-02T01:31:34;4.55;;;1.52;;
67930;SDS011;54726;52.000;5.954;2022-08-02T01:32:40;4.65;;;1.60;;
67930;SDS011;54726;52.000;5.954;2022-08-02T01:33:44;3.80;;;1.30;;
67930;SDS011;54726;52.000;5.954;2022-08-02T01:34:50;2.83;;;1.50;;
67930;SDS011;54726;52.000;5.954;2022-08-02T01:35:53;8.73;;;1.85;;
67930;SDS011;54726;52.000;5.954;2022-08-02T01:36:57;7.75;;;1.85;;
67930;SDS011;54726;52.000;5.954;2022-08-02T01:38:08;4.35;;;1.58;;
67930;SDS011;54726;52.000;5.954;2022-08-02T01:39:14;6.40;;;1.58;;
67930;SDS011;54726;52.000;5.954;2022-08-02T01:40:20;4.13;;;1.40;;
67930;SDS011;54726;52.000;5.954;2022-08-02T01:41:24;5.78;;;1.55;;
67930;SDS011;54726;52.000;5.954;2022-08-02T01:42:25;3.78;;;1.48;;
67930;SDS011;54726;52.000;5.954;2022-08-02T01:43:29;2.25;;;1.20;;
67930;SDS011;54726;52.000;5.954;2022-08-02T01:44:33;3.88;;;1.40;;
67930;SDS011;54726;52.000;5.954;2022-08-02T01:45:36;6.97;;;1.70;;
67930;SDS011;54726;52.000;5.954;2022-08-02T01:46:40;4.38;;;1.90;;
67930;SDS011;54726;52.000;5.954;2022-08-02T01:47:41;5.00;;;1.60;;
67930;SDS011;54726;52.000;5.954;2022-08-02T01:48:44;4.20;;;1.55;;
67930;SDS011;54726;52.000;5.954;2022-08-02T01:49:46;4.32;;;1.50;;
67930;SDS011;54726;52.000;5.954;2022-08-02T01:50:49;5.65;;;1.40;;
67930;SDS011;54726;52.000;5.954;2022-08-02T01:51:51;2.08;;;1.40;;
67930;SDS011;54726;52.000;5.954;2022-08-02T01:52:53;4.50;;;1.80;;
67930;SDS011;54726;52.000;5.954;2022-08-02T01:53:56;9.15;;;2.30;;
67930;SDS011;54726;52.000;5.954;2022-08-02T01:54:58;5.55;;;1.75;;
67930;SDS011;54726;52.000;5.954;2022-08-02T01:56:03;6.60;;;1.63;;
67930;SDS011;54726;52.000;5.954;2022-08-02T01:57:06;7.53;;;1.50;;
67930;SDS011;54726;52.000;5.954;2022-08-02T01:58:11;4.35;;;1.60;;
67930;SDS011;54726;52.000;5.954;2022-08-02T01:59:17;5.90;;;1.63;;
67930;SDS011;54726;52.000;5.954;2022-08-02T02:00:20;5.00;;;1.75;;
67930;SDS011;54726;52.000;5.954;2022-08-02T02:01:23;3.78;;;1.75;;
67930;SDS011;54726;52.000;5.954;2022-08-02T02:02:24;3.50;;;1.40;;
67930;SDS011;54726;52.000;5.954;2022-08-02T02:03:26;3.67;;;1.40;;
67930;SDS011;54726;52.000;5.954;2022-08-02T02:04:30;3.88;;;1.50;;
67930;SDS011;54726;52.000;5.954;2022-08-02T02:05:31;4.88;;;1.75;;
67930;SDS011;54726;52.000;5.954;2022-08-02T02:06:34;6.97;;;1.80;;
67930;SDS011;54726;52.000;5.954;2022-08-02T02:07:36;6.05;;;1.50;;
67930;SDS011;54726;52.000;5.954;2022-08-02T02:08:39;7.65;;;1.50;;
67930;SDS011;54726;52.000;5.954;2022-08-02T02:09:42;4.18;;;1.70;;
67930;SDS011;54726;52.000;5.954;2022-08-02T02:10:45;5.65;;;1.70;;
67930;SDS011;54726;52.000;5.954;2022-08-02T02:11:46;5.47;;;1.88;;
67930;SDS011;54726;52.000;5.954;2022-08-02T02:12:49;5.47;;;1.90;;
67930;SDS011;54726;52.000;5.954;2022-08-02T02:13:50;2.92;;;1.45;;
67930;SDS011;54726;52.000;5.954;2022-08-02T02:14:52;5.15;;;1.83;;
67930;SDS011;54726;52.000;5.954;2022-08-02T02:15:55;7.07;;;1.80;;
67930;SDS011;54726;52.000;5.954;2022-08-02T02:16:57;4.75;;;1.70;;
67930;SDS011;54726;52.000;5.954;2022-08-02T02:17:59;6.43;;;2.03;;
67930;SDS011;54726;52.000;5.954;2022-08-02T02:19:01;7.82;;;1.83;;
67930;SDS011;54726;52.000;5.954;2022-08-02T02:20:03;2.92;;;1.50;;
67930;SDS011;54726;52.000;5.954;2022-08-02T02:21:05;5.07;;;1.85;;
67930;SDS011;54726;52.000;5.954;2022-08-02T02:22:06;9.82;;;2.10;;
67930;SDS011;54726;52.000;5.954;2022-08-02T02:23:07;3.47;;;1.52;;
67930;SDS011;54726;52.000;5.954;2022-08-02T02:24:07;14.25;;;2.35;;
67930;SDS011;54726;52.000;5.954;2022-08-02T02:25:09;6.68;;;1.77;;
67930;SDS011;54726;52.000;5.954;2022-08-02T02:26:12;5.68;;;2.10;;
67930;SDS011;54726;52.000;5.954;2022-08-02T02:27:15;12.88;;;1.88;;
67930;SDS011;54726;52.000;5.954;2022-08-02T02:28:19;6.45;;;1.65;;
67930;SDS011;54726;52.000;5.954;2022-08-02T02:29:21;4.90;;;1.48;;
67930;SDS011;54726;52.000;5.954;2022-08-02T02:30:27;3.20;;;1.60;;
67930;SDS011;54726;52.000;5.954;2022-08-02T02:31:31;8.43;;;2.08;;
67930;SDS011;54726;52.000;5.954;2022-08-02T02:32:34;10.45;;;2.17;;
67930;SDS011;54726;52.000;5.954;2022-08-02T02:33:36;2.67;;;1.50;;
67930;SDS011;54726;52.000;5.954;2022-08-02T02:34:41;4.78;;;1.80;;
67930;SDS011;54726;52.000;5.954;2022-08-02T02:35:45;5.05;;;1.77;;
67930;SDS011;54726;52.000;5.954;2022-08-02T02:36:49;5.20;;;1.90;;
67930;SDS011;54726;52.000;5.954;2022-08-02T02:37:50;7.45;;;2.58;;
67930;SDS011;54726;52.000;5.954;2022-08-02T02:38:54;5.05;;;1.70;;
67930;SDS011;54726;52.000;5.954;2022-08-02T02:39:58;4.68;;;1.60;;
67930;SDS011;54726;52.000;5.954;2022-08-02T02:41:01;5.35;;;2.30;;
67930;SDS011;54726;52.000;5.954;2022-08-02T02:42:05;8.45;;;1.70;;
67930;SDS011;54726;52.000;5.954;2022-08-02T02:43:09;6.18;;;2.10;;
67930;SDS011;54726;52.000;5.954;2022-08-02T02:44:12;4.00;;;1.80;;
67930;SDS011;54726;52.000;5.954;2022-08-02T02:45:17;6.78;;;2.03;;
67930;SDS011;54726;52.000;5.954;2022-08-02T02:46:21;4.50;;;2.08;;
67930;SDS011;54726;52.000;5.954;2022-08-02T02:47:24;7.88;;;2.55;;
67930;SDS011;54726;52.000;5.954;2022-08-02T02:48:26;5.78;;;2.00;;
67930;SDS011;54726;52.000;5.954;2022-08-02T02:49:29;6.13;;;1.98;;
67930;SDS011;54726;52.000;5.954;2022-08-02T02:50:31;7.53;;;2.08;;
67930;SDS011;54726;52.000;5.954;2022-08-02T02:51:32;8.50;;;2.42;;
67930;SDS011;54726;52.000;5.954;2022-08-02T02:52:34;5.55;;;1.88;;
67930;SDS011;54726;52.000;5.954;2022-08-02T02:53:36;3.75;;;1.77;;
67930;SDS011;54726;52.000;5.954;2022-08-02T02:54:37;5.03;;;1.88;;
67930;SDS011;54726;52.000;5.954;2022-08-02T02:55:37;6.20;;;1.90;;
67930;SDS011;54726;52.000;5.954;2022-08-02T02:56:39;5.70;;;2.05;;
67930;SDS011;54726;52.000;5.954;2022-08-02T02:57:41;7.70;;;2.20;;
67930;SDS011;54726;52.000;5.954;2022-08-02T02:58:42;6.32;;;2.47;;
67930;SDS011;54726;52.000;5.954;2022-08-02T02:59:44;5.82;;;1.73;;
67930;SDS011;54726;52.000;5.954;2022-08-02T03:00:45;6.82;;;2.25;;
67930;SDS011;54726;52.000;5.954;2022-08-02T03:01:48;5.80;;;2.00;;
67930;SDS011;54726;52.000;5.954;2022-08-02T03:02:50;9.77;;;2.80;;
67930;SDS011;54726;52.000;5.954;2022-08-02T03:03:50;7.57;;;2.47;;
67930;SDS011;54726;52.000;5.954;2022-08-02T03:04:52;4.90;;;2.05;;
67930;SDS011;54726;52.000;5.954;2022-08-02T03:05:54;9.95;;;2.05;;
67930;SDS011;54726;52.000;5.954;2022-08-02T03:06:54;4.75;;;2.08;;
67930;SDS011;54726;52.000;5.954;2022-08-02T03:07:55;10.55;;;1.88;;
67930;SDS011;54726;52.000;5.954;2022-08-02T03:08:56;11.95;;;2.67;;
67930;SDS011;54726;52.000;5.954;2022-08-02T03:09:56;6.97;;;2.10;;
67930;SDS011;54726;52.000;5.954;2022-08-02T03:10:57;8.07;;;2.05;;
67930;SDS011;54726;52.000;5.954;2022-08-02T03:11:57;5.13;;;2.15;;
67930;SDS011;54726;52.000;5.954;2022-08-02T03:12:58;7.22;;;2.58;;
67930;SDS011;54726;52.000;5.954;2022-08-02T03:14:00;4.38;;;1.85;;
67930;SDS011;54726;52.000;5.954;2022-08-02T03:15:03;5.95;;;1.90;;
67930;SDS011;54726;52.000;5.954;2022-08-02T03:16:05;6.82;;;2.28;;
67930;SDS011;54726;52.000;5.954;2022-08-02T03:17:07;8.13;;;2.70;;
67930;SDS011;54726;52.000;5.954;2022-08-02T03:18:08;6.60;;;2.10;;
67930;SDS011;54726;52.000;5.954;2022-08-02T03:19:08;6.53;;;2.22;;
67930;SDS011;54726;52.000;5.954;2022-08-02T03:20:10;8.38;;;2.20;;
67930;SDS011;54726;52.000;5.954;2022-08-02T03:21:12;9.02;;;2.42;;
67930;SDS011;54726;52.000;5.954;2022-08-02T03:22:13;5.70;;;2.40;;
67930;SDS011;54726;52.000;5.954;2022-08-02T03:23:13;10.65;;;2.30;;
67930;SDS011;54726;52.000;5.954;2022-08-02T03:24:13;7.40;;;1.95;;
67930;SDS011;54726;52.000;5.954;2022-08-02T03:25:14;5.60;;;1.90;;
67930;SDS011;54726;52.000;5.954;2022-08-02T03:26:16;5.05;;;2.08;;
67930;SDS011;54726;52.000;5.954;2022-08-02T03:27:16;6.40;;;1.92;;
67930;SDS011;54726;52.000;5.954;2022-08-02T03:28:16;5.47;;;2.08;;
67930;SDS011;54726;52.000;5.954;2022-08-02T03:29:17;5.85;;;2.13;;
67930;SDS011;54726;52.000;5.954;2022-08-02T03:30:17;6.63;;;2.20;;
67930;SDS011;54726;52.000;5.954;2022-08-02T03:31:18;7.72;;;2.13;;
67930;SDS011;54726;52.000;5.954;2022-08-02T03:32:19;3.78;;;1.90;;
67930;SDS011;54726;52.000;5.954;2022-08-02T03:33:20;7.25;;;1.95;;
67930;SDS011;54726;52.000;5.954;2022-08-02T03:34:22;8.02;;;2.33;;
67930;SDS011;54726;52.000;5.954;2022-08-02T03:35:22;4.85;;;2.13;;
67930;SDS011;54726;52.000;5.954;2022-08-02T03:36:23;7.32;;;2.22;;
67930;SDS011;54726;52.000;5.954;2022-08-02T03:37:26;8.93;;;2.63;;
67930;SDS011;54726;52.000;5.954;2022-08-02T03:38:28;8.05;;;2.72;;
67930;SDS011;54726;52.000;5.954;2022-08-02T03:39:31;8.00;;;2.63;;
67930;SDS011;54726;52.000;5.954;2022-08-02T03:40:32;6.72;;;2.42;;
67930;SDS011;54726;52.000;5.954;2022-08-02T03:41:34;4.75;;;2.45;;
67930;SDS011;54726;52.000;5.954;2022-08-02T03:42:36;7.97;;;2.50;;
67930;SDS011;54726;52.000;5.954;2022-08-02T03:43:37;6.40;;;2.50;;
67930;SDS011;54726;52.000;5.954;2022-08-02T03:44:39;9.98;;;2.47;;
67930;SDS011;54726;52.000;5.954;2022-08-02T03:45:41;4.03;;;2.13;;
67930;SDS011;54726;52.000;5.954;2022-08-02T03:46:43;6.45;;;2.47;;
67930;SDS011;54726;52.000;5.954;2022-08-02T03:47:46;6.00;;;2.38;;
67930;SDS011;54726;52.000;5.954;2022-08-02T03:48:47;7.43;;;2.55;;
67930;SDS011;54726;52.000;5.954;2022-08-02T03:49:49;5.45;;;2.28;;
67930;SDS011;54726;52.000;5.954;2022-08-02T03:50:50;7.95;;;2.15;;
67930;SDS011;54726;52.000;5.954;2022-08-02T03:51:51;5.80;;;2.53;;
67930;SDS011;54726;52.000;5.954;2022-08-02T03:52:53;5.53;;;2.30;;
67930;SDS011;54726;52.000;5.954;2022-08-02T03:53:54;11.48;;;2.10;;
67930;SDS011;54726;52.000;5.954;2022-08-02T03:54:55;6.65;;;2.03;;
67930;SDS011;54726;52.000;5.954;2022-08-02T03:55:56;6.35;;;2.50;;
67930;SDS011;54726;52.000;5.954;2022-08-02T03:56:57;6.97;;;2.50;;
67930;SDS011;54726;52.000;5.954;2022-08-02T03:57:58;8.20;;;2.10;;
67930;SDS011;54726;52.000;5.954;2022-08-02T03:59:06;9.75;;;2.22;;
67930;SDS011;54726;52.000;5.954;2022-08-02T04:00:08;7.38;;;2.50;;
67930;SDS011;54726;52.000;5.954;2022-08-02T04:01:10;3.63;;;1.98;;
67930;SDS011;54726;52.000;5.954;2022-08-02T04:02:11;10.13;;;2.75;;
67930;SDS011;54726;52.000;5.954;2022-08-02T04:03:13;7.15;;;2.55;;
67930;SDS011;54726;52.000;5.954;2022-08-02T04:04:14;8.68;;;3.28;;
67930;SDS011;54726;52.000;5.954;2022-08-02T04:05:15;7.65;;;2.83;;
67930;SDS011;54726;52.000;5.954;2022-08-02T04:06:16;12.30;;;2.50;;
67930;SDS011;54726;52.000;5.954;2022-08-02T04:07:16;8.85;;;1.98;;
67930;SDS011;54726;52.000;5.954;2022-08-02T04:08:17;6.70;;;2.40;;
67930;SDS011;54726;52.000;5.954;2022-08-02T04:09:17;4.22;;;2.20;;
67930;SDS011;54726;52.000;5.954;2022-08-02T04:10:17;7.88;;;3.00;;
67930;SDS011;54726;52.000;5.954;2022-08-02T04:11:18;6.07;;;2.65;;
67930;SDS011;54726;52.000;5.954;2022-08-02T04:12:18;8.18;;;2.45;;
67930;SDS011;54726;52.000;5.954;2022-08-02T04:13:19;5.20;;;2.30;;
67930;SDS011;54726;52.000;5.954;2022-08-02T04:14:20;8.15;;;2.90;;
67930;SDS011;54726;52.000;5.954;2022-08-02T04:15:21;5.65;;;2.42;;
67930;SDS011;54726;52.000;5.954;2022-08-02T04:16:26;10.00;;;2.75;;
67930;SDS011;54726;52.000;5.954;2022-08-02T04:17:30;9.75;;;2.78;;
67930;SDS011;54726;52.000;5.954;2022-08-02T04:18:34;9.27;;;2.97;;
67930;SDS011;54726;52.000;5.954;2022-08-02T04:19:41;8.48;;;2.35;;
67930;SDS011;54726;52.000;5.954;2022-08-02T04:20:44;6.90;;;2.55;;
67930;SDS011;54726;52.000;5.954;2022-08-02T04:21:48;7.88;;;2.55;;
67930;SDS011;54726;52.000;5.954;2022-08-02T04:22:54;5.95;;;2.10;;
67930;SDS011;54726;52.000;5.954;2022-08-02T04:23:57;8.07;;;2.63;;
67930;SDS011;54726;52.000;5.954;2022-08-02T04:25:00;4.15;;;2.13;;
67930;SDS011;54726;52.000;5.954;2022-08-02T04:26:02;6.03;;;2.40;;
67930;SDS011;54726;52.000;5.954;2022-08-02T04:27:04;4.28;;;2.55;;
67930;SDS011;54726;52.000;5.954;2022-08-02T04:28:07;7.80;;;2.50;;
67930;SDS011;54726;52.000;5.954;2022-08-02T04:29:09;7.95;;;3.15;;
67930;SDS011;54726;52.000;5.954;2022-08-02T04:30:12;12.15;;;2.85;;
67930;SDS011;54726;52.000;5.954;2022-08-02T04:31:13;6.22;;;2.15;;
67930;SDS011;54726;52.000;5.954;2022-08-02T04:32:14;5.80;;;2.45;;
67930;SDS011;54726;52.000;5.954;2022-08-02T04:33:16;9.43;;;2.80;;
67930;SDS011;54726;52.000;5.954;2022-08-02T04:34:18;10.13;;;2.63;;
67930;SDS011;54726;52.000;5.954;2022-08-02T04:35:19;6.90;;;2.92;;
67930;SDS011;54726;52.000;5.954;2022-08-02T04:36:20;16.45;;;3.53;;
67930;SDS011;54726;52.000;5.954;2022-08-02T04:37:20;8.10;;;3.10;;
67930;SDS011;54726;52.000;5.954;2022-08-02T04:38:21;6.65;;;3.65;;
67930;SDS011;54726;52.000;5.954;2022-08-02T04:39:21;8.30;;;3.28;;
67930;SDS011;54726;52.000;5.954;2022-08-02T04:40:22;12.32;;;4.10;;
67930;SDS011;54726;52.000;5.954;2022-08-02T04:41:22;10.27;;;3.58;;
67930;SDS011;54726;52.000;5.954;2022-08-02T04:42:35;10.50;;;3.88;;
67930;SDS011;54726;52.000;5.954;2022-08-02T04:43:35;8.77;;;3.50;;
67930;SDS011;54726;52.000;5.954;2022-08-02T04:44:35;16.08;;;4.20;;
67930;SDS011;54726;52.000;5.954;2022-08-02T04:45:36;11.10;;;3.70;;
67930;SDS011;54726;52.000;5.954;2022-08-02T04:46:36;15.18;;;4.07;;
67930;SDS011;54726;52.000;5.954;2022-08-02T04:47:38;8.90;;;3.75;;
67930;SDS011;54726;52.000;5.954;2022-08-02T04:48:38;11.27;;;4.15;;
67930;SDS011;54726;52.000;5.954;2022-08-02T04:49:40;10.80;;;3.83;;
67930;SDS011;54726;52.000;5.954;2022-08-02T04:50:40;12.65;;;4.22;;
67930;SDS011;54726;52.000;5.954;2022-08-02T04:51:41;10.48;;;4.15;;
67930;SDS011;54726;52.000;5.954;2022-08-02T04:52:42;9.70;;;3.67;;
67930;SDS011;54726;52.000;5.954;2022-08-02T04:53:42;10.13;;;3.78;;
67930;SDS011;54726;52.000;5.954;2022-08-02T04:54:43;8.20;;;4.20;;
67930;SDS011;54726;52.000;5.954;2022-08-02T04:55:43;14.55;;;4.50;;
67930;SDS011;54726;52.000;5.954;2022-08-02T04:56:44;7.32;;;4.00;;
67930;SDS011;54726;52.000;5.954;2022-08-02T04:57:45;12.95;;;4.38;;
67930;SDS011;54726;52.000;5.954;2022-08-02T04:58:45;8.90;;;3.88;;
67930;SDS011;54726;52.000;5.954;2022-08-02T04:59:45;12.98;;;4.00;;
67930;SDS011;54726;52.000;5.954;2022-08-02T05:00:46;9.07;;;3.53;;
67930;SDS011;54726;52.000;5.954;2022-08-02T05:01:46;9.10;;;3.88;;
67930;SDS011;54726;52.000;5.954;2022-08-02T05:02:47;17.67;;;4.13;;
67930;SDS011;54726;52.000;5.954;2022-08-02T05:03:48;13.85;;;4.18;;
67930;SDS011;54726;52.000;5.954;2022-08-02T05:04:49;9.57;;;4.30;;
67930;SDS011;54726;52.000;5.954;2022-08-02T05:05:50;13.05;;;4.32;;
67930;SDS011;54726;52.000;5.954;2022-08-02T05:06:50;9.02;;;4.38;;
67930;SDS011;54726;52.000;5.954;2022-08-02T05:07:51;9.07;;;5.22;;
67930;SDS011;54726;52.000;5.954;2022-08-02T05:08:51;15.07;;;5.07;;
67930;SDS011;54726;52.000;5.954;2022-08-02T05:09:52;16.25;;;4.88;;
67930;SDS011;54726;52.000;5.954;2022-08-02T05:10:52;11.45;;;4.65;;
67930;SDS011;54726;52.000;5.954;2022-08-02T05:11:53;16.13;;;5.25;;
67930;SDS011;54726;52.000;5.954;2022-08-02T05:12:53;12.70;;;4.80;;
67930;SDS011;54726;52.000;5.954;2022-08-02T05:13:54;13.82;;;5.38;;
67930;SDS011;54726;52.000;5.954;2022-08-02T05:14:54;14.30;;;5.00;;
67930;SDS011;54726;52.000;5.954;2022-08-02T05:15:55;12.32;;;5.40;;
67930;SDS011;54726;52.000;5.954;2022-08-02T05:16:55;14.25;;;5.50;;
67930;SDS011;54726;52.000;5.954;2022-08-02T05:17:55;10.25;;;5.25;;
67930;SDS011;54726;52.000;5.954;2022-08-02T05:18:56;13.93;;;5.00;;
67930;SDS011;54726;52.000;5.954;2022-08-02T05:19:58;15.15;;;4.72;;
67930;SDS011;54726;52.000;5.954;2022-08-02T05:20:58;10.13;;;4.32;;
67930;SDS011;54726;52.000;5.954;2022-08-02T05:21:59;14.40;;;5.43;;
67930;SDS011;54726;52.000;5.954;2022-08-02T05:22:59;12.10;;;5.20;;
67930;SDS011;54726;52.000;5.954;2022-08-02T05:23:59;17.08;;;6.22;;
67930;SDS011;54726;52.000;5.954;2022-08-02T05:25:00;15.90;;;6.35;;
67930;SDS011;54726;52.000;5.954;2022-08-02T05:26:00;20.58;;;6.60;;
67930;SDS011;54726;52.000;5.954;2022-08-02T05:27:01;12.35;;;5.45;;
67930;SDS011;54726;52.000;5.954;2022-08-02T05:28:01;11.65;;;5.45;;
67930;SDS011;54726;52.000;5.954;2022-08-02T05:29:02;15.10;;;5.07;;
67930;SDS011;54726;52.000;5.954;2022-08-02T05:30:03;13.50;;;4.93;;
67930;SDS011;54726;52.000;5.954;2022-08-02T05:31:04;15.23;;;5.80;;
67930;SDS011;54726;52.000;5.954;2022-08-02T05:32:05;13.73;;;5.30;;
67930;SDS011;54726;52.000;5.954;2022-08-02T05:33:06;11.20;;;5.78;;
67930;SDS011;54726;52.000;5.954;2022-08-02T05:34:06;21.42;;;6.35;;
67930;SDS011;54726;52.000;5.954;2022-08-02T05:35:08;14.23;;;5.00;;
67930;SDS011;54726;52.000;5.954;2022-08-02T05:36:08;16.90;;;7.60;;
67930;SDS011;54726;52.000;5.954;2022-08-02T05:37:09;15.88;;;6.00;;
67930;SDS011;54726;52.000;5.954;2022-08-02T05:38:09;11.70;;;5.55;;
67930;SDS011;54726;52.000;5.954;2022-08-02T05:39:10;11.25;;;5.40;;
67930;SDS011;54726;52.000;5.954;2022-08-02T05:40:10;15.05;;;5.85;;
67930;SDS011;54726;52.000;5.954;2022-08-02T05:41:11;16.98;;;6.10;;
67930;SDS011;54726;52.000;5.954;2022-08-02T05:42:11;17.52;;;6.20;;
67930;SDS011;54726;52.000;5.954;2022-08-02T05:43:12;11.23;;;5.68;;
67930;SDS011;54726;52.000;5.954;2022-08-02T05:44:13;18.17;;;6.70;;
67930;SDS011;54726;52.000;5.954;2022-08-02T05:45:13;21.33;;;6.03;;
67930;SDS011;54726;52.000;5.954;2022-08-02T05:46:13;8.40;;;5.05;;
67930;SDS011;54726;52.000;5.954;2022-08-02T05:47:14;20.00;;;6.53;;
67930;SDS011;54726;52.000;5.954;2022-08-02T05:48:14;16.85;;;6.28;;
67930;SDS011;54726;52.000;5.954;2022-08-02T05:49:15;21.05;;;6.47;;
67930;SDS011;54726;52.000;5.954;2022-08-02T05:50:17;17.65;;;5.97;;
67930;SDS011;54726;52.000;5.954;2022-08-02T05:51:18;25.35;;;7.90;;
67930;SDS011;54726;52.000;5.954;2022-08-02T05:52:23;21.48;;;7.28;;
67930;SDS011;54726;52.000;5.954;2022-08-02T05:53:27;18.70;;;6.40;;
67930;SDS011;54726;52.000;5.954;2022-08-02T05:54:39;19.45;;;6.13;;
67930;SDS011;54726;52.000;5.954;2022-08-02T05:55:47;20.05;;;6.35;;
67930;SDS011;54726;52.000;5.954;2022-08-02T05:56:59;21.92;;;6.30;;
67930;SDS011;54726;52.000;5.954;2022-08-02T05:58:01;16.95;;;6.75;;
67930;SDS011;54726;52.000;5.954;2022-08-02T05:59:08;17.60;;;6.82;;
67930;SDS011;54726;52.000;5.954;2022-08-02T06:00:13;15.73;;;6.20;;
67930;SDS011;54726;52.000;5.954;2022-08-02T06:01:15;17.65;;;6.68;;
67930;SDS011;54726;52.000;5.954;2022-08-02T06:02:23;28.98;;;7.18;;
67930;SDS011;54726;52.000;5.954;2022-08-02T06:03:30;22.23;;;6.90;;
67930;SDS011;54726;52.000;5.954;2022-08-02T06:04:36;21.77;;;6.72;;
67930;SDS011;54726;52.000;5.954;2022-08-02T06:05:51;13.55;;;6.85;;
67930;SDS011;54726;52.000;5.954;2022-08-02T06:07:00;16.95;;;7.10;;
67930;SDS011;54726;52.000;5.954;2022-08-02T06:08:01;22.45;;;7.82;;
67930;SDS011;54726;52.000;5.954;2022-08-02T06:09:03;15.85;;;7.18;;
67930;SDS011;54726;52.000;5.954;2022-08-02T06:10:08;12.88;;;6.93;;
67930;SDS011;54726;52.000;5.954;2022-08-02T06:11:10;20.25;;;7.93;;
67930;SDS011;54726;52.000;5.954;2022-08-02T06:12:13;16.95;;;7.65;;
67930;SDS011;54726;52.000;5.954;2022-08-02T06:13:16;20.17;;;7.28;;